createdAt,value
2022-09-25T00:01:19.560Z,3.20
2022-09-25T00:03:48.176Z,1.80
2022-09-25T00:06:22.051Z,4.00
2022-09-25T00:08:50.552Z,1.00
2022-09-25T00:11:21.004Z,1.80
2022-09-25T00:13:49.391Z,2.00
2022-09-25T00:16:31.499Z,3.60
2022-09-25T00:19:18.175Z,3.40
2022-09-25T00:21:47.291Z,1.40
2022-09-25T00:24:15.320Z,2.20
2022-09-25T00:26:43.618Z,2.00
2022-09-25T00:29:21.054Z,1.80
2022-09-25T00:31:48.673Z,1.00
2022-09-25T00:34:16.121Z,1.40
2022-09-25T00:36:43.534Z,2.20
2022-09-25T00:39:11.014Z,1.00
2022-09-25T00:41:38.745Z,1.40
2022-09-25T00:44:44.392Z,4.40
2022-09-25T00:47:16.640Z,1.00
2022-09-25T00:49:45.682Z,3.80
2022-09-25T00:52:14.880Z,5.00
2022-09-25T00:54:50.491Z,3.80
2022-09-25T00:57:21.498Z,2.20
2022-09-25T00:59:53.971Z,3.40
2022-09-25T01:02:31.573Z,4.20
2022-09-25T01:05:06.970Z,1.00
2022-09-25T01:07:38.756Z,2.40
2022-09-25T01:10:08.422Z,4.00
2022-09-25T01:12:39.819Z,5.20
2022-09-25T01:15:09.437Z,1.60
2022-09-25T01:17:52.724Z,2.80
2022-09-25T01:20:51.071Z,6.60
2022-09-25T01:23:37.172Z,4.00
2022-09-25T01:26:20.942Z,3.00
2022-09-25T01:29:16.903Z,1.20
2022-09-25T01:32:05.681Z,2.60
2022-09-25T01:35:07.240Z,4.00
2022-09-25T01:37:39.897Z,3.00
2022-09-25T01:40:10.452Z,3.60
2022-09-25T01:42:49.479Z,1.60
2022-09-25T01:45:28.857Z,3.40
2022-09-25T01:48:00.070Z,1.20
2022-09-25T01:50:34.216Z,5.40
2022-09-25T01:53:07.921Z,3.20
2022-09-25T01:55:45.262Z,3.60
2022-09-25T01:58:24.315Z,4.00
2022-09-25T02:01:02.017Z,3.00
2022-09-25T02:03:40.334Z,4.00
2022-09-25T02:06:10.568Z,1.00
2022-09-25T02:08:47.773Z,2.20
2022-09-25T02:11:15.334Z,3.00
2022-09-25T02:13:50.570Z,3.80
2022-09-25T02:16:23.497Z,2.00
2022-09-25T02:19:09.650Z,1.60
2022-09-25T02:21:55.121Z,2.20
2022-09-25T02:24:47.339Z,4.80
2022-09-25T02:27:16.299Z,3.80
2022-09-25T02:29:44.236Z,4.60
2022-09-25T02:32:17.635Z,2.80
2022-09-25T02:34:45.489Z,3.60
2022-09-25T02:37:18.197Z,2.00
2022-09-25T02:39:50.362Z,4.60
2022-09-25T02:42:28.483Z,3.20
2022-09-25T02:45:11.417Z,1.00
2022-09-25T02:47:57.756Z,3.20
2022-09-25T02:50:25.439Z,4.60
2022-09-25T02:53:14.574Z,5.00
2022-09-25T02:55:52.098Z,2.00
2022-09-25T02:58:39.968Z,4.00
2022-09-25T03:01:10.437Z,4.20
2022-09-25T03:03:40.430Z,1.80
2022-09-25T03:06:09.195Z,4.00
2022-09-25T03:08:43.960Z,3.60
2022-09-25T03:11:17.869Z,3.20
2022-09-25T03:13:46.129Z,2.40
2022-09-25T03:16:19.822Z,3.60
2022-09-25T03:18:48.731Z,3.80
2022-09-25T03:21:16.422Z,3.20
2022-09-25T03:23:43.996Z,6.20
2022-09-25T03:26:11.848Z,5.00
2022-09-25T03:28:39.451Z,1.40
2022-09-25T03:31:10.684Z,5.00
2022-09-25T03:33:41.038Z,5.40
2022-09-25T03:36:19.311Z,4.00
2022-09-25T03:38:49.428Z,4.00
2022-09-25T03:41:21.687Z,5.00
2022-09-25T03:43:51.655Z,2.40
2022-09-25T03:46:26.078Z,1.80
2022-09-25T03:48:55.148Z,1.00
2022-09-25T03:51:24.539Z,4.00
2022-09-25T03:53:52.240Z,2.20
2022-09-25T03:56:30.026Z,9.20
2022-09-25T03:58:58.062Z,1.80
2022-09-25T04:01:27.625Z,3.60
2022-09-25T04:03:55.111Z,4.40
2022-09-25T04:06:25.677Z,6.60
2022-09-25T04:08:54.367Z,4.00
2022-09-25T04:11:24.272Z,4.00
2022-09-25T04:13:52.219Z,2.00
2022-09-25T04:16:21.611Z,2.80
2022-09-25T04:18:50.189Z,3.60
2022-09-25T04:21:20.881Z,4.60
2022-09-25T04:24:08.451Z,6.20
2022-09-25T04:26:36.313Z,5.00
2022-09-25T04:29:04.062Z,3.20
2022-09-25T04:31:32.633Z,6.20
2022-09-25T04:34:00.227Z,1.00
2022-09-25T04:36:27.806Z,4.80
2022-09-25T04:38:55.282Z,5.40
2022-09-25T04:41:22.975Z,4.60
2022-09-25T04:43:50.297Z,4.40
2022-09-25T04:46:21.982Z,4.20
2022-09-25T04:48:50.512Z,3.60
2022-09-25T04:51:18.327Z,3.20
2022-09-25T04:53:46.399Z,3.20
2022-09-25T04:56:15.764Z,4.80
2022-09-25T04:58:50.920Z,5.00
2022-09-25T05:01:23.091Z,4.00
2022-09-25T05:03:54.285Z,3.20
2022-09-25T05:06:22.319Z,7.60
2022-09-25T05:08:50.221Z,5.60
2022-09-25T05:11:18.279Z,6.20
2022-09-25T05:13:49.463Z,10.60
2022-09-25T05:16:17.153Z,15.60
2022-09-25T05:18:44.847Z,5.00
2022-09-25T05:21:12.398Z,5.60
2022-09-25T05:23:40.073Z,3.60
2022-09-25T05:26:07.599Z,5.80
2022-09-25T05:28:35.038Z,5.20
2022-09-25T05:31:04.114Z,1.40
2022-09-25T05:33:53.702Z,6.40
2022-09-25T05:36:21.345Z,9.20
2022-09-25T05:38:48.867Z,4.40
2022-09-25T05:41:16.800Z,5.60
2022-09-25T05:43:47.840Z,6.60
2022-09-25T05:46:16.607Z,12.80
2022-09-25T05:48:44.304Z,12.40
2022-09-25T05:51:12.117Z,14.00
2022-09-25T05:53:39.999Z,5.00
2022-09-25T05:56:07.721Z,2.80
2022-09-25T05:58:36.126Z,5.60
2022-09-25T06:01:05.774Z,7.00
2022-09-25T06:03:33.858Z,2.40
2022-09-25T06:06:02.904Z,3.00
2022-09-25T06:08:36.152Z,2.00
2022-09-25T06:11:04.586Z,4.80
2022-09-25T06:13:33.917Z,4.20
2022-09-25T06:16:02.007Z,3.80
2022-09-25T06:18:29.718Z,4.80
2022-09-25T06:21:02.900Z,3.00
2022-09-25T06:23:30.762Z,3.00
2022-09-25T06:26:07.598Z,4.60
2022-09-25T06:28:36.021Z,3.00
2022-09-25T06:31:05.158Z,4.00
2022-09-25T06:33:33.492Z,4.00
2022-09-25T06:36:01.145Z,3.60
2022-09-25T06:38:29.085Z,1.00
2022-09-25T06:41:00.151Z,3.40
2022-09-25T06:43:28.998Z,4.60
2022-09-25T06:46:00.304Z,1.60
2022-09-25T06:48:27.774Z,4.60
2022-09-25T06:50:57.100Z,4.00
2022-09-25T06:53:26.033Z,5.00
2022-09-25T06:55:57.632Z,4.40
2022-09-25T06:58:27.137Z,3.80
2022-09-25T07:00:56.354Z,3.00
2022-09-25T07:03:43.024Z,3.00
2022-09-25T07:06:12.801Z,3.20
2022-09-25T07:08:40.741Z,4.50
2022-09-25T07:11:08.788Z,5.00
2022-09-25T07:13:37.271Z,3.75
2022-09-25T07:16:07.209Z,5.00
2022-09-25T07:18:35.403Z,4.50
2022-09-25T07:21:07.377Z,2.75
2022-09-25T07:23:36.518Z,3.00
2022-09-25T07:26:13.583Z,4.00
2022-09-25T07:28:42.522Z,4.00
2022-09-25T07:31:19.989Z,3.75
2022-09-25T07:33:48.478Z,3.00
2022-09-25T07:36:17.558Z,3.00
2022-09-25T07:38:49.152Z,3.00
2022-09-25T07:41:18.162Z,3.00
2022-09-25T07:43:46.138Z,5.00
2022-09-25T07:46:13.976Z,3.00
2022-09-25T07:48:41.549Z,1.00
2022-09-25T07:51:12.438Z,3.75
2022-09-25T07:53:40.861Z,3.25
2022-09-25T07:56:09.512Z,3.00
2022-09-25T07:58:37.231Z,2.00
2022-09-25T08:01:08.710Z,3.00
2022-09-25T08:03:36.474Z,1.00
2022-09-25T08:06:13.517Z,3.25
2022-09-25T08:08:42.334Z,2.00
2022-09-25T08:11:15.495Z,2.00
2022-09-25T08:13:44.122Z,2.00
2022-09-25T08:16:15.615Z,2.20
2022-09-25T08:18:46.478Z,2.00
2022-09-25T08:21:16.397Z,2.00
2022-09-25T08:23:48.111Z,2.00
2022-09-25T08:26:17.210Z,1.00
2022-09-25T08:28:44.916Z,1.20
2022-09-25T08:31:14.884Z,1.00
2022-09-25T08:33:50.144Z,0.60
2022-09-25T08:36:18.367Z,1.00
2022-09-25T08:38:47.009Z,2.00
2022-09-25T08:41:23.723Z,1.20
2022-09-25T08:44:19.592Z,1.40
2022-09-25T08:47:24.373Z,2.20
2022-09-25T08:50:05.691Z,2.40
2022-09-25T08:52:34.542Z,3.40
2022-09-25T08:55:01.912Z,4.00
2022-09-25T08:57:45.543Z,4.00
2022-09-25T09:00:23.683Z,4.40
2022-09-25T09:02:57.260Z,3.00
2022-09-25T09:05:27.861Z,3.00
2022-09-25T09:08:05.029Z,4.00
2022-09-25T09:10:51.239Z,2.00
2022-09-25T09:13:21.374Z,2.20
2022-09-25T09:16:21.557Z,1.00
2022-09-25T09:18:49.533Z,1.80
2022-09-25T09:21:45.354Z,2.00
2022-09-25T09:24:23.451Z,2.60
2022-09-25T09:27:22.577Z,2.00
2022-09-25T09:30:00.297Z,2.00
2022-09-25T09:32:49.120Z,3.00
2022-09-25T09:35:47.754Z,2.00
2022-09-25T09:38:50.695Z,1.00
2022-09-25T09:42:02.148Z,2.80
2022-09-25T09:44:58.852Z,1.00
2022-09-25T09:47:54.361Z,1.00
2022-09-25T09:50:52.301Z,1.00
2022-09-25T09:53:45.355Z,3.40
2022-09-25T09:56:26.030Z,2.60
2022-09-25T09:59:18.388Z,1.60
2022-09-25T10:01:59.795Z,1.60
2022-09-25T10:04:36.694Z,4.00
2022-09-25T10:07:08.846Z,2.00
2022-09-25T10:09:37.689Z,2.00
2022-09-25T10:12:21.871Z,1.40
2022-09-25T10:14:50.243Z,2.00
2022-09-25T10:17:20.124Z,1.40
2022-09-25T10:20:01.251Z,4.20
2022-09-25T10:22:38.124Z,4.20
2022-09-25T10:25:06.865Z,4.80
2022-09-25T10:27:46.494Z,3.00
2022-09-25T10:30:19.326Z,5.20
2022-09-25T10:33:13.757Z,3.80
2022-09-25T10:35:45.682Z,2.00
2022-09-25T10:38:39.623Z,1.00
2022-09-25T10:41:20.243Z,1.75
2022-09-25T10:43:53.989Z,5.25
2022-09-25T10:46:48.741Z,3.00
2022-09-25T10:49:38.859Z,2.25
2022-09-25T10:52:12.187Z,2.00
2022-09-25T10:54:44.831Z,2.20
2022-09-25T10:57:38.524Z,3.00
2022-09-25T11:00:24.671Z,1.60
2022-09-25T11:02:57.522Z,1.20
2022-09-25T11:05:36.786Z,3.60
2022-09-25T11:08:07.803Z,1.60
2022-09-25T11:10:42.868Z,3.00
2022-09-25T11:13:24.813Z,3.00
2022-09-25T11:15:56.861Z,3.00
2022-09-25T11:18:41.443Z,3.00
2022-09-25T11:21:40.397Z,1.00
2022-09-25T11:24:18.184Z,2.60
2022-09-25T11:27:02.161Z,4.20
2022-09-25T11:29:41.659Z,3.00
2022-09-25T11:32:34.496Z,1.00
2022-09-25T11:35:39.196Z,2.60
2022-09-25T11:38:50.942Z,2.20
2022-09-25T11:41:56.799Z,3.00
2022-09-25T11:44:42.602Z,2.40
2022-09-25T11:47:26.132Z,1.00
2022-09-25T11:49:57.084Z,1.00
2022-09-25T11:52:49.619Z,1.60
2022-09-25T11:55:22.764Z,1.00
2022-09-25T11:58:01.715Z,1.00
2022-09-25T12:00:52.089Z,3.00
2022-09-25T12:03:43.354Z,2.00
2022-09-25T12:06:29.551Z,1.00
2022-09-25T12:09:30.055Z,1.25
2022-09-25T12:11:57.610Z,2.75
2022-09-25T12:14:55.975Z,1.00
2022-09-25T12:17:38.791Z,1.50
2022-09-25T12:20:15.330Z,0.80
2022-09-25T12:23:16.629Z,1.00
2022-09-25T12:26:06.880Z,1.00
2022-09-25T12:29:11.150Z,0.00
2022-09-25T12:31:44.573Z,0.60
2022-09-25T12:34:29.230Z,1.00
2022-09-25T12:37:30.798Z,0.00
2022-09-25T12:40:13.857Z,1.00
2022-09-25T12:42:47.541Z,1.00
2022-09-25T12:45:37.949Z,2.00
2022-09-25T12:48:44.528Z,0.50
2022-09-25T12:51:46.748Z,0.00
2022-09-25T12:54:54.947Z,0.75
2022-09-25T12:57:33.763Z,0.75
2022-09-25T13:00:09.693Z,0.50
2022-09-25T13:03:06.027Z,1.25
2022-09-25T13:05:52.818Z,2.00
2022-09-25T13:08:27.696Z,0.00
2022-09-25T13:11:01.378Z,2.25
2022-09-25T13:13:33.043Z,1.00
2022-09-25T13:16:02.253Z,0.50
2022-09-25T13:18:34.395Z,0.25
2022-09-25T13:21:31.799Z,2.00
2022-09-25T13:24:00.537Z,0.50
2022-09-25T13:26:29.492Z,1.00
2022-09-25T13:29:15.310Z,0.25
2022-09-25T13:31:45.021Z,0.00
2022-09-25T13:34:16.091Z,0.50
2022-09-25T13:36:58.996Z,1.00
2022-09-25T13:39:58.976Z,1.25
2022-09-25T13:42:39.237Z,1.75
2022-09-25T13:45:29.403Z,1.00
2022-09-25T13:48:07.792Z,1.50
2022-09-25T13:50:41.275Z,0.00
2022-09-25T13:53:37.931Z,0.25
2022-09-25T13:56:14.116Z,1.00
2022-09-25T13:58:59.702Z,1.25
2022-09-25T14:01:39.659Z,0.50
2022-09-25T14:04:28.427Z,1.00
2022-09-25T14:07:20.589Z,1.50
2022-09-25T14:09:53.982Z,1.00
2022-09-25T14:12:42.872Z,2.25
2022-09-25T14:15:22.125Z,2.25
2022-09-25T14:17:53.296Z,2.00
2022-09-25T14:20:43.006Z,2.75
2022-09-25T14:23:15.183Z,1.00
2022-09-25T14:25:47.161Z,0.50
2022-09-25T14:28:26.944Z,0.25
2022-09-25T14:31:22.843Z,1.00
2022-09-25T14:34:21.261Z,1.00
2022-09-25T14:37:12.027Z,0.25
2022-09-25T14:39:48.884Z,1.00
2022-09-25T14:42:34.557Z,0.00
2022-09-25T14:45:02.718Z,0.00
2022-09-25T14:47:38.404Z,0.50
2022-09-25T14:50:07.088Z,0.50
2022-09-25T14:52:37.605Z,1.00
2022-09-25T14:55:06.782Z,1.00
2022-09-25T14:57:39.843Z,0.00
2022-09-25T15:00:16.075Z,1.00
2022-09-25T15:02:47.450Z,0.75
2022-09-25T15:05:27.163Z,0.50
2022-09-25T15:07:59.099Z,0.00
2022-09-25T15:10:38.713Z,0.50
2022-09-25T15:13:21.086Z,0.00
2022-09-25T15:16:17.502Z,1.00
2022-09-25T15:18:50.212Z,0.00
2022-09-25T15:21:23.925Z,0.00
2022-09-25T15:23:53.442Z,1.00
2022-09-25T15:26:21.861Z,1.00
2022-09-25T15:28:50.114Z,1.00
2022-09-25T15:31:18.527Z,0.25
2022-09-25T15:34:11.649Z,0.00
2022-09-25T15:36:39.451Z,1.00
2022-09-25T15:39:16.545Z,2.00
2022-09-25T15:41:45.083Z,1.00
2022-09-25T15:44:24.155Z,1.00
2022-09-25T15:46:57.622Z,0.00
2022-09-25T15:49:36.057Z,0.50
2022-09-25T15:52:32.986Z,1.00
2022-09-25T15:55:21.157Z,2.00
2022-09-25T15:57:51.205Z,1.00
2022-09-25T16:00:40.899Z,0.25
2022-09-25T16:03:35.293Z,1.00
2022-09-25T16:06:04.158Z,1.00
2022-09-25T16:08:34.877Z,0.00
2022-09-25T16:11:26.826Z,0.75
2022-09-25T16:14:16.927Z,0.25
2022-09-25T16:16:49.624Z,0.75
2022-09-25T16:19:25.304Z,0.00
2022-09-25T16:21:54.277Z,1.00
2022-09-25T16:24:29.110Z,0.50
2022-09-25T16:27:03.103Z,1.00
2022-09-25T16:29:33.720Z,1.25
2022-09-25T16:32:05.641Z,0.00
2022-09-25T16:34:41.011Z,0.00
2022-09-25T16:37:21.376Z,0.00
2022-09-25T16:40:09.699Z,1.50
2022-09-25T16:42:42.696Z,1.00
2022-09-25T16:45:21.206Z,0.50
2022-09-25T16:47:49.645Z,1.00
2022-09-25T16:50:19.226Z,1.00
2022-09-25T16:52:48.004Z,1.00
2022-09-25T16:55:20.161Z,1.00
2022-09-25T16:57:47.834Z,0.00
2022-09-25T17:00:18.538Z,0.50
2022-09-25T17:02:47.781Z,2.00
2022-09-25T17:05:23.454Z,0.00
2022-09-25T17:07:53.935Z,1.75
2022-09-25T17:10:24.204Z,1.00
2022-09-25T17:12:54.033Z,0.75
2022-09-25T17:15:29.528Z,1.50
2022-09-25T17:17:57.027Z,1.25
2022-09-25T17:20:26.404Z,1.00
2022-09-25T17:22:54.892Z,1.75
2022-09-25T17:25:48.193Z,1.00
2022-09-25T17:28:16.454Z,0.50
2022-09-25T17:30:44.782Z,1.00
2022-09-25T17:33:24.587Z,1.75
2022-09-25T17:36:00.113Z,1.00
2022-09-25T17:38:28.014Z,2.25
2022-09-25T17:41:00.487Z,1.00
2022-09-25T17:43:30.692Z,0.00
2022-09-25T17:46:00.165Z,1.50
2022-09-25T17:48:31.530Z,1.75
2022-09-25T17:51:18.323Z,1.00
2022-09-25T17:53:46.471Z,1.80
2022-09-25T17:56:13.913Z,1.00
2022-09-25T17:58:44.711Z,0.00
2022-09-25T18:01:15.542Z,1.00
2022-09-25T18:03:43.044Z,1.80
2022-09-25T18:06:10.758Z,1.00
2022-09-25T18:08:38.996Z,2.00
2022-09-25T18:11:06.454Z,1.00
2022-09-25T18:13:37.875Z,2.00
2022-09-25T18:16:16.812Z,0.20
2022-09-25T18:19:04.180Z,1.60
2022-09-25T18:21:50.645Z,1.80
2022-09-25T18:24:18.437Z,1.00
2022-09-25T18:26:46.472Z,2.00
2022-09-25T18:29:18.658Z,1.00
2022-09-25T18:31:47.686Z,1.00
2022-09-25T18:34:16.219Z,1.80
2022-09-25T18:36:43.697Z,2.00
2022-09-25T18:39:13.853Z,3.00
2022-09-25T18:41:44.961Z,1.60
2022-09-25T18:44:13.541Z,1.00
2022-09-25T18:46:41.069Z,2.00
2022-09-25T18:49:09.108Z,2.00
2022-09-25T18:51:36.623Z,2.60
2022-09-25T18:54:04.182Z,2.00
2022-09-25T18:56:34.829Z,1.80
2022-09-25T18:59:05.760Z,2.00
2022-09-25T19:01:37.198Z,10.80
2022-09-25T19:04:05.442Z,1.00
2022-09-25T19:06:33.661Z,2.00
2022-09-25T19:09:01.550Z,2.00
2022-09-25T19:11:29.104Z,2.00
2022-09-25T19:13:56.932Z,1.20
2022-09-25T19:16:24.468Z,2.00
2022-09-25T19:18:52.117Z,2.00
2022-09-25T19:21:23.327Z,1.60
2022-09-25T19:23:51.044Z,2.00
2022-09-25T19:26:22.510Z,2.20
2022-09-25T19:28:50.009Z,1.40
2022-09-25T19:31:20.354Z,1.00
2022-09-25T19:33:48.407Z,2.00
2022-09-25T19:36:35.137Z,0.40
2022-09-25T19:39:03.238Z,2.80
2022-09-25T19:41:34.282Z,2.60
2022-09-25T19:44:12.647Z,2.00
2022-09-25T19:46:41.615Z,3.00
2022-09-25T19:49:10.060Z,1.80
2022-09-25T19:51:38.154Z,2.20
2022-09-25T19:54:07.798Z,2.00
2022-09-25T19:56:40.895Z,1.20
2022-09-25T19:59:18.096Z,2.80
2022-09-25T20:01:46.328Z,2.80
2022-09-25T20:04:18.706Z,2.80
2022-09-25T20:06:47.273Z,3.00
2022-09-25T20:09:15.300Z,2.00
2022-09-25T20:11:43.542Z,1.80
2022-09-25T20:14:11.617Z,3.00
2022-09-25T20:16:39.418Z,2.00
2022-09-25T20:19:08.509Z,3.40
2022-09-25T20:21:38.972Z,1.80
2022-09-25T20:24:08.362Z,2.60
2022-09-25T20:26:36.757Z,2.20
2022-09-25T20:29:12.830Z,2.00
2022-09-25T20:31:42.797Z,0.00
2022-09-25T20:34:18.761Z,1.20
2022-09-25T20:36:46.811Z,1.80
2022-09-25T20:39:19.848Z,2.40
2022-09-25T20:41:49.973Z,2.80
2022-09-25T20:44:17.618Z,4.80
2022-09-25T20:46:45.564Z,3.00
2022-09-25T20:49:13.531Z,3.40
2022-09-25T20:51:41.836Z,2.60
2022-09-25T20:54:10.502Z,3.80
2022-09-25T20:56:44.038Z,2.60
2022-09-25T20:59:12.412Z,3.00
2022-09-25T21:01:41.806Z,2.40
2022-09-25T21:04:10.308Z,1.40
2022-09-25T21:06:40.259Z,2.00
2022-09-25T21:09:29.940Z,1.60
2022-09-25T21:11:57.844Z,3.40
2022-09-25T21:14:29.205Z,2.20
2022-09-25T21:16:57.459Z,2.20
2022-09-25T21:19:26.082Z,1.80
2022-09-25T21:21:53.756Z,2.40
2022-09-25T21:24:22.703Z,3.00
2022-09-25T21:26:50.798Z,3.00
2022-09-25T21:29:18.983Z,1.80
2022-09-25T21:31:50.372Z,2.80
2022-09-25T21:34:19.812Z,2.40
2022-09-25T21:36:48.249Z,2.40
2022-09-25T21:39:16.476Z,3.40
2022-09-25T21:41:44.853Z,2.40
2022-09-25T21:44:15.275Z,2.00
2022-09-25T21:46:43.682Z,2.40
2022-09-25T21:49:21.081Z,3.60
2022-09-25T21:51:49.791Z,4.40
2022-09-25T21:54:17.821Z,3.00
2022-09-25T21:56:45.808Z,3.00
2022-09-25T21:59:13.923Z,2.20
2022-09-25T22:01:42.236Z,4.00
2022-09-25T22:04:12.474Z,3.40
2022-09-25T22:06:45.976Z,4.00
2022-09-25T22:09:17.801Z,2.20
2022-09-25T22:11:47.671Z,3.00
2022-09-25T22:14:16.701Z,3.00
2022-09-25T22:16:46.899Z,3.80
2022-09-25T22:19:23.350Z,2.00
2022-09-25T22:21:52.312Z,5.20
2022-09-25T22:24:20.496Z,3.00
2022-09-25T22:26:50.297Z,2.00
2022-09-25T22:29:19.676Z,3.00
2022-09-25T22:31:47.931Z,3.00
2022-09-25T22:34:21.370Z,2.20
2022-09-25T22:36:53.564Z,2.00
2022-09-25T22:39:24.240Z,3.80
2022-09-25T22:41:53.559Z,3.00
2022-09-25T22:44:22.219Z,3.20
2022-09-25T22:46:50.136Z,4.00
2022-09-25T22:49:18.045Z,3.00
2022-09-25T22:51:45.629Z,2.00
2022-09-25T22:54:14.803Z,3.00
2022-09-25T22:56:43.123Z,3.00
2022-09-25T22:59:19.180Z,3.00
2022-09-25T23:01:54.515Z,2.80
2022-09-25T23:04:24.601Z,2.80
2022-09-25T23:06:52.563Z,2.00
2022-09-25T23:09:22.211Z,3.20
2022-09-25T23:11:50.016Z,3.00
2022-09-25T23:14:24.498Z,2.00
2022-09-25T23:16:53.771Z,3.40
2022-09-25T23:19:22.530Z,3.20
2022-09-25T23:21:52.833Z,2.00
2022-09-25T23:24:21.836Z,2.20
2022-09-25T23:26:49.398Z,2.80
2022-09-25T23:29:18.839Z,1.80
2022-09-25T23:31:47.953Z,2.00
2022-09-25T23:34:16.298Z,2.60
2022-09-25T23:36:44.095Z,2.60
2022-09-25T23:39:17.114Z,2.60
2022-09-25T23:41:45.221Z,3.20
2022-09-25T23:44:13.039Z,3.20
2022-09-25T23:46:42.340Z,3.40
2022-09-25T23:49:10.784Z,4.00
2022-09-25T23:51:39.031Z,4.40
2022-09-25T23:54:06.961Z,3.40
2022-09-25T23:56:36.243Z,2.00
2022-09-25T23:59:05.174Z,3.00
